createdAt,value
2023-02-15T00:00:16.340Z,98498.46
2023-02-15T00:03:04.399Z,98496.27
2023-02-15T00:05:32.798Z,98497.30
2023-02-15T00:08:00.869Z,98495.30
2023-02-15T00:10:29.055Z,98494.95
2023-02-15T00:12:57.335Z,98495.48
2023-02-15T00:15:27.069Z,98495.83
2023-02-15T00:17:55.118Z,98500.11
2023-02-15T00:20:23.094Z,98500.81
2023-02-15T00:22:51.174Z,98508.52
2023-02-15T00:25:19.250Z,98510.94
2023-02-15T00:27:47.326Z,98511.78
2023-02-15T00:30:15.842Z,98508.84
2023-02-15T00:32:43.984Z,98506.43
2023-02-15T00:35:13.400Z,98499.95
2023-02-15T00:37:41.411Z,98503.08
2023-02-15T00:40:10.376Z,98503.45
2023-02-15T00:42:38.549Z,98503.11
2023-02-15T00:45:07.343Z,98500.37
2023-02-15T00:47:35.374Z,98500.39
2023-02-15T00:50:04.414Z,98501.94
2023-02-15T00:52:32.406Z,98499.89
2023-02-15T00:55:00.468Z,98502.13
2023-02-15T00:57:28.541Z,98496.98
2023-02-15T00:59:56.874Z,98494.25
2023-02-15T01:02:24.835Z,98497.48
2023-02-15T01:04:52.994Z,98499.88
2023-02-15T01:07:21.153Z,98499.17
2023-02-15T01:09:49.251Z,98497.11
2023-02-15T01:12:17.320Z,98489.77
2023-02-15T01:14:45.490Z,98485.84
2023-02-15T01:17:13.567Z,98486.38
2023-02-15T01:19:41.719Z,98483.80
2023-02-15T01:22:10.026Z,98485.66
2023-02-15T01:24:38.512Z,98485.63
2023-02-15T01:27:06.590Z,98484.44
2023-02-15T01:29:34.661Z,98480.50
2023-02-15T01:32:03.716Z,98472.95
2023-02-15T01:34:31.836Z,98475.84
2023-02-15T01:37:00.249Z,98476.84
2023-02-15T01:39:28.304Z,98472.55
2023-02-15T01:41:58.439Z,98470.01
2023-02-15T01:44:48.622Z,98469.67
2023-02-15T01:47:42.674Z,98469.16
2023-02-15T01:50:17.623Z,98469.16
2023-02-15T01:53:02.264Z,98463.21
2023-02-15T01:55:36.773Z,98462.40
2023-02-15T01:58:05.572Z,98460.85
2023-02-15T02:00:35.575Z,98460.17
2023-02-15T02:03:04.993Z,98457.61
2023-02-15T02:05:34.117Z,98453.85
2023-02-15T02:08:03.347Z,98454.87
2023-02-15T02:10:32.700Z,98454.54
2023-02-15T02:13:05.893Z,98450.23
2023-02-15T02:15:56.623Z,98444.61
2023-02-15T02:18:52.699Z,98448.23
2023-02-15T02:21:42.780Z,98441.56
2023-02-15T02:24:42.469Z,98438.48
2023-02-15T02:27:42.689Z,98439.04
2023-02-15T02:30:38.498Z,98437.83
2023-02-15T02:33:15.782Z,98434.61
2023-02-15T02:36:16.599Z,98437.02
2023-02-15T02:39:01.470Z,98441.48
2023-02-15T02:41:44.559Z,98435.48
2023-02-15T02:44:50.826Z,98438.56
2023-02-15T02:47:25.375Z,98439.60
2023-02-15T02:50:00.492Z,98440.96
2023-02-15T02:52:40.137Z,98444.06
2023-02-15T02:55:14.549Z,98444.40
2023-02-15T02:58:22.134Z,98446.96
2023-02-15T03:00:55.953Z,98450.71
2023-02-15T03:03:36.393Z,98450.04
2023-02-15T03:06:12.041Z,98449.17
2023-02-15T03:08:46.362Z,98447.98
2023-02-15T03:11:14.848Z,98444.91
2023-02-15T03:13:45.946Z,98444.78
2023-02-15T03:16:34.883Z,98443.29
2023-02-15T03:19:10.644Z,98443.81
2023-02-15T03:21:50.603Z,98446.05
2023-02-15T03:24:25.752Z,98447.60
2023-02-15T03:26:56.993Z,98446.05
2023-02-15T03:29:29.106Z,98445.70
2023-02-15T03:32:03.741Z,98439.38
2023-02-15T03:34:32.098Z,98437.66
2023-02-15T03:37:42.284Z,98443.15
2023-02-15T03:40:46.451Z,98448.30
2023-02-15T03:43:33.643Z,98447.63
2023-02-15T03:46:14.868Z,98448.53
2023-02-15T03:48:55.490Z,98448.54
2023-02-15T03:51:35.146Z,98451.47
2023-02-15T03:54:39.368Z,98452.49
2023-02-15T03:57:30.603Z,98455.41
2023-02-15T04:00:18.558Z,98464.48
2023-02-15T04:02:57.917Z,98461.56
2023-02-15T04:05:26.157Z,98462.42
2023-02-15T04:07:54.075Z,98465.34
2023-02-15T04:10:40.963Z,98464.15
2023-02-15T04:13:08.949Z,98467.39
2023-02-15T04:15:55.645Z,98465.20
2023-02-15T04:18:42.153Z,98467.77
2023-02-15T04:21:28.467Z,98469.87
2023-02-15T04:24:15.048Z,98473.11
2023-02-15T04:26:43.082Z,98477.24
2023-02-15T04:29:11.180Z,98480.65
2023-02-15T04:31:39.517Z,98478.42
2023-02-15T04:34:07.749Z,98479.25
2023-02-15T04:36:36.013Z,98478.89
2023-02-15T04:39:04.512Z,98477.52
2023-02-15T04:41:33.404Z,98483.33
2023-02-15T04:44:02.147Z,98484.19
2023-02-15T04:46:30.167Z,98486.27
2023-02-15T04:48:58.856Z,98495.02
2023-02-15T04:51:26.932Z,98497.40
2023-02-15T04:53:55.050Z,98499.46
2023-02-15T04:56:23.286Z,98500.16
2023-02-15T04:58:51.463Z,98500.33
2023-02-15T05:01:19.784Z,98501.70
2023-02-15T05:03:48.127Z,98504.79
2023-02-15T05:06:16.074Z,98504.59
2023-02-15T05:08:44.392Z,98503.76
2023-02-15T05:11:12.898Z,98502.56
2023-02-15T05:13:41.263Z,98503.23
2023-02-15T05:16:09.445Z,98502.89
2023-02-15T05:18:37.623Z,98506.32
2023-02-15T05:21:05.774Z,98507.52
2023-02-15T05:23:33.867Z,98511.32
2023-02-15T05:26:21.064Z,98512.87
2023-02-15T05:28:49.016Z,98517.67
2023-02-15T05:31:21.198Z,98517.66
2023-02-15T05:33:49.418Z,98513.73
2023-02-15T05:36:17.684Z,98514.06
2023-02-15T05:38:46.076Z,98519.53
2023-02-15T05:41:14.248Z,98520.39
2023-02-15T05:43:42.631Z,98519.70
2023-02-15T05:46:11.712Z,98522.09
2023-02-15T05:48:39.823Z,98519.17
2023-02-15T05:51:11.104Z,98519.50
2023-02-15T05:53:40.469Z,98520.16
2023-02-15T05:56:11.226Z,98525.30
2023-02-15T05:58:41.751Z,98522.23
2023-02-15T06:01:15.251Z,98526.86
2023-02-15T06:03:43.542Z,98530.31
2023-02-15T06:06:12.210Z,98531.36
2023-02-15T06:08:40.598Z,98532.55
2023-02-15T06:11:09.094Z,98535.64
2023-02-15T06:13:38.907Z,98538.89
2023-02-15T06:16:08.097Z,98541.50
2023-02-15T06:18:36.385Z,98544.61
2023-02-15T06:21:04.870Z,98550.95
2023-02-15T06:23:32.934Z,98553.69
2023-02-15T06:26:01.506Z,98561.38
2023-02-15T06:28:29.808Z,98562.73
2023-02-15T06:30:58.146Z,98558.95
2023-02-15T06:33:26.482Z,98555.88
2023-02-15T06:35:54.502Z,98557.04
2023-02-15T06:38:22.534Z,98557.54
2023-02-15T06:40:50.809Z,98556.85
2023-02-15T06:43:19.188Z,98557.36
2023-02-15T06:45:47.194Z,98556.16
2023-02-15T06:48:15.265Z,98555.45
2023-02-15T06:50:43.315Z,98558.02
2023-02-15T06:53:11.460Z,98558.86
2023-02-15T06:55:39.471Z,98561.26
2023-02-15T06:58:07.957Z,98569.13
2023-02-15T07:00:36.143Z,98570.84
2023-02-15T07:03:04.195Z,98574.09
2023-02-15T07:05:35.019Z,98573.40
2023-02-15T07:08:03.540Z,98574.05
2023-02-15T07:10:31.749Z,98571.27
2023-02-15T07:12:59.985Z,98571.58
2023-02-15T07:15:28.061Z,98569.29
2023-02-15T07:17:56.047Z,98568.73
2023-02-15T07:20:24.832Z,98569.52
2023-02-15T07:22:53.207Z,98568.80
2023-02-15T07:25:21.393Z,98568.03
2023-02-15T07:27:49.487Z,98570.36
2023-02-15T07:30:18.537Z,98572.20
2023-02-15T07:33:05.906Z,98570.31
2023-02-15T07:35:34.763Z,98568.95
2023-02-15T07:38:02.846Z,98568.59
2023-02-15T07:40:31.238Z,98566.52
2023-02-15T07:43:00.409Z,98560.70
2023-02-15T07:45:28.718Z,98555.70
2023-02-15T07:47:56.792Z,98554.45
2023-02-15T07:50:25.092Z,98552.04
2023-02-15T07:52:53.422Z,98550.48
2023-02-15T07:55:21.534Z,98545.48
2023-02-15T07:57:51.014Z,98545.48
2023-02-15T08:00:23.867Z,98549.87
2023-02-15T08:03:14.312Z,98547.63
2023-02-15T08:05:45.066Z,98540.38
2023-02-15T08:08:32.269Z,98535.02
2023-02-15T08:11:26.741Z,98533.81
2023-02-15T08:13:57.720Z,98531.73
2023-02-15T08:16:44.492Z,98528.98
2023-02-15T08:19:21.370Z,98530.87
2023-02-15T08:21:52.336Z,98535.55
2023-02-15T08:24:22.860Z,98535.64
2023-02-15T08:26:52.458Z,98534.19
2023-02-15T08:29:23.602Z,98533.11
2023-02-15T08:32:07.396Z,98533.07
2023-02-15T08:34:41.871Z,98530.98
2023-02-15T08:37:10.558Z,98529.45
2023-02-15T08:39:38.739Z,98532.84
2023-02-15T08:42:06.812Z,98529.37
2023-02-15T08:44:34.880Z,98531.23
2023-02-15T08:47:05.025Z,98528.79
2023-02-15T08:49:33.702Z,98525.86
2023-02-15T08:52:01.898Z,98527.33
2023-02-15T08:54:30.269Z,98529.86
2023-02-15T08:56:58.646Z,98530.33
2023-02-15T08:59:28.046Z,98529.44
2023-02-15T09:01:56.685Z,98529.22
2023-02-15T09:04:24.928Z,98524.70
2023-02-15T09:06:53.350Z,98528.41
2023-02-15T09:09:22.860Z,98525.79
2023-02-15T09:11:57.893Z,98525.02
2023-02-15T09:14:28.599Z,98522.06
2023-02-15T09:16:57.061Z,98524.81
2023-02-15T09:19:26.123Z,98522.92
2023-02-15T09:21:54.977Z,98520.98
2023-02-15T09:24:23.140Z,98522.82
2023-02-15T09:26:51.524Z,98525.91
2023-02-15T09:29:20.839Z,98527.10
2023-02-15T09:31:51.558Z,98525.54
2023-02-15T09:34:22.010Z,98519.17
2023-02-15T09:36:52.038Z,98514.71
2023-02-15T09:39:30.113Z,98514.84
2023-02-15T09:42:17.124Z,98510.34
2023-02-15T09:45:32.887Z,98508.06
2023-02-15T09:48:31.861Z,98503.02
2023-02-15T09:51:22.880Z,98501.58
2023-02-15T09:54:23.491Z,98498.92
2023-02-15T09:57:00.359Z,98500.05
2023-02-15T09:59:34.894Z,98497.03
2023-02-15T10:02:17.906Z,98499.36
2023-02-15T10:05:01.440Z,98496.16
2023-02-15T10:07:38.517Z,98493.49
2023-02-15T10:10:34.731Z,98489.99
2023-02-15T10:13:34.524Z,98497.11
2023-02-15T10:16:10.484Z,98492.59
2023-02-15T10:18:56.874Z,98486.98
2023-02-15T10:21:34.461Z,98483.13
2023-02-15T10:24:20.054Z,98483.17
2023-02-15T10:26:49.693Z,98480.17
2023-02-15T10:29:31.365Z,98479.38
2023-02-15T10:32:27.581Z,98476.05
2023-02-15T10:35:02.703Z,98472.13
2023-02-15T10:37:46.247Z,98469.77
2023-02-15T10:41:03.160Z,98467.48
2023-02-15T10:43:40.599Z,98465.83
2023-02-15T10:46:25.154Z,98461.12
2023-02-15T10:48:56.834Z,98455.72
2023-02-15T10:51:38.512Z,98457.64
2023-02-15T10:54:15.495Z,98452.23
2023-02-15T10:56:49.396Z,98454.52
2023-02-15T10:59:32.823Z,98455.63
2023-02-15T11:02:16.147Z,98453.14
2023-02-15T11:05:02.705Z,98451.96
2023-02-15T11:07:36.360Z,98445.02
2023-02-15T11:10:18.441Z,98441.36
2023-02-15T11:12:48.265Z,98436.84
2023-02-15T11:15:26.952Z,98435.09
2023-02-15T11:18:06.832Z,98433.46
2023-02-15T11:20:42.655Z,98430.11
2023-02-15T11:23:17.320Z,98428.44
2023-02-15T11:25:58.285Z,98427.66
2023-02-15T11:28:51.321Z,98421.20
2023-02-15T11:31:43.571Z,98420.92
2023-02-15T11:34:20.121Z,98421.52
2023-02-15T11:36:51.576Z,98423.29
2023-02-15T11:39:22.514Z,98422.52
2023-02-15T11:41:56.117Z,98423.13
2023-02-15T11:44:42.936Z,98420.33
2023-02-15T11:47:13.037Z,98421.79
2023-02-15T11:49:41.226Z,98418.60
2023-02-15T11:52:14.581Z,98417.13
2023-02-15T11:54:51.068Z,98414.84
2023-02-15T11:57:28.476Z,98416.67
2023-02-15T12:00:05.771Z,98420.36
2023-02-15T12:02:38.477Z,98413.60
2023-02-15T12:05:13.294Z,98408.16
2023-02-15T12:07:47.997Z,98407.07
2023-02-15T12:10:25.860Z,98403.41
2023-02-15T12:13:18.090Z,98399.01
2023-02-15T12:15:50.163Z,98397.03
2023-02-15T12:18:22.383Z,98395.38
2023-02-15T12:20:50.954Z,98396.52
2023-02-15T12:23:19.726Z,98395.02
2023-02-15T12:25:56.810Z,98393.71
2023-02-15T12:28:32.517Z,98386.06
2023-02-15T12:31:03.493Z,98384.82
2023-02-15T12:33:46.640Z,98382.48
2023-02-15T12:36:27.832Z,98379.66
2023-02-15T12:39:05.422Z,98385.06
2023-02-15T12:41:33.899Z,98382.23
2023-02-15T12:44:20.020Z,98380.79
2023-02-15T12:47:19.475Z,98378.80
2023-02-15T12:50:05.456Z,98372.69
2023-02-15T12:52:33.634Z,98374.64
2023-02-15T12:55:23.001Z,98376.75
2023-02-15T12:58:20.453Z,98373.38
2023-02-15T13:00:49.084Z,98374.79
2023-02-15T13:03:25.003Z,98379.33
2023-02-15T13:05:56.231Z,98370.95
2023-02-15T13:08:36.813Z,98373.41
2023-02-15T13:11:12.405Z,98374.69
2023-02-15T13:13:57.315Z,98372.14
2023-02-15T13:16:33.613Z,98369.29
2023-02-15T13:19:16.210Z,98363.70
2023-02-15T13:21:51.258Z,98362.91
2023-02-15T13:24:25.241Z,98366.08
2023-02-15T13:27:09.310Z,98367.70
2023-02-15T13:29:46.667Z,98366.05
2023-02-15T13:32:30.192Z,98365.12
2023-02-15T13:35:00.561Z,98365.66
2023-02-15T13:38:10.042Z,98365.41
2023-02-15T13:40:47.841Z,98365.24
2023-02-15T13:43:34.023Z,98363.41
2023-02-15T13:46:05.114Z,98359.16
2023-02-15T13:48:51.294Z,98357.51
2023-02-15T13:51:32.747Z,98360.48
2023-02-15T13:54:10.843Z,98356.58
2023-02-15T13:57:09.928Z,98356.48
2023-02-15T13:59:57.157Z,98356.19
2023-02-15T14:02:28.404Z,98360.39
2023-02-15T14:05:27.181Z,98359.77
2023-02-15T14:08:35.264Z,98358.63
2023-02-15T14:11:14.293Z,98357.16
2023-02-15T14:14:00.947Z,98351.91
2023-02-15T14:17:00.684Z,98352.14
2023-02-15T14:19:52.401Z,98353.60
2023-02-15T14:22:36.432Z,98356.41
2023-02-15T14:25:26.312Z,98359.95
2023-02-15T14:28:29.117Z,98358.80
2023-02-15T14:30:58.574Z,98358.02
2023-02-15T14:33:34.360Z,98362.24
2023-02-15T14:36:07.420Z,98363.89
2023-02-15T14:39:46.827Z,98365.02
2023-02-15T14:42:26.871Z,98361.96
2023-02-15T14:45:18.186Z,98366.35
2023-02-15T14:47:57.008Z,98366.42
2023-02-15T14:50:31.048Z,98364.30
2023-02-15T14:53:24.274Z,98365.95
2023-02-15T14:56:10.266Z,98365.59
2023-02-15T14:58:39.376Z,98369.84
2023-02-15T15:01:10.599Z,98365.16
2023-02-15T15:03:50.500Z,98365.46
2023-02-15T15:06:28.865Z,98365.44
2023-02-15T15:09:02.261Z,98367.66
2023-02-15T15:11:42.626Z,98366.61
2023-02-15T15:14:34.648Z,98365.73
2023-02-15T15:17:04.971Z,98367.73
2023-02-15T15:19:51.975Z,98367.86
2023-02-15T15:22:22.549Z,98365.61
2023-02-15T15:24:53.720Z,98363.38
2023-02-15T15:27:51.409Z,98363.20
2023-02-15T15:30:19.432Z,98369.38
2023-02-15T15:33:00.142Z,98368.87
2023-02-15T15:36:05.061Z,98369.42
2023-02-15T15:39:18.367Z,98371.02
2023-02-15T15:41:57.188Z,98370.92
2023-02-15T15:44:59.860Z,98374.98
2023-02-15T15:47:36.734Z,98379.94
2023-02-15T15:50:22.921Z,98380.23
2023-02-15T15:52:54.246Z,98380.69
2023-02-15T15:55:28.688Z,98381.67
2023-02-15T15:58:01.382Z,98383.08
2023-02-15T16:00:41.945Z,98386.87
2023-02-15T16:03:23.307Z,98390.46
2023-02-15T16:05:56.219Z,98394.26
2023-02-15T16:08:31.548Z,98396.20
2023-02-15T16:11:14.562Z,98395.15
2023-02-15T16:13:44.892Z,98399.45
2023-02-15T16:16:20.384Z,98404.71
2023-02-15T16:18:48.928Z,98407.45
2023-02-15T16:21:24.355Z,98408.23
2023-02-15T16:23:52.286Z,98408.67
2023-02-15T16:26:36.067Z,98413.29
2023-02-15T16:29:16.022Z,98420.94
2023-02-15T16:31:44.690Z,98418.09
2023-02-15T16:34:19.236Z,98423.77
2023-02-15T16:36:47.416Z,98422.30
2023-02-15T16:39:21.109Z,98426.67
2023-02-15T16:41:55.428Z,98430.67
2023-02-15T16:44:23.613Z,98433.23
2023-02-15T16:46:55.109Z,98435.94
2023-02-15T16:49:27.256Z,98436.40
2023-02-15T16:52:06.997Z,98433.96
2023-02-15T16:54:36.619Z,98434.30
2023-02-15T16:57:04.972Z,98434.66
2023-02-15T16:59:37.754Z,98434.63
2023-02-15T17:02:14.516Z,98435.17
2023-02-15T17:04:46.193Z,98437.73
2023-02-15T17:07:21.428Z,98440.10
2023-02-15T17:09:55.652Z,98437.49
2023-02-15T17:12:48.380Z,98438.63
2023-02-15T17:15:33.351Z,98437.04
2023-02-15T17:18:16.570Z,98444.74
2023-02-15T17:20:46.082Z,98442.45
2023-02-15T17:23:26.644Z,98443.58
2023-02-15T17:25:55.853Z,98440.39
2023-02-15T17:28:27.101Z,98438.08
2023-02-15T17:30:57.115Z,98440.77
2023-02-15T17:33:34.508Z,98443.43
2023-02-15T17:36:23.041Z,98443.58
2023-02-15T17:39:23.361Z,98443.77
2023-02-15T17:41:54.096Z,98442.77
2023-02-15T17:44:22.268Z,98443.95
2023-02-15T17:46:50.553Z,98447.15
2023-02-15T17:49:35.017Z,98445.38
2023-02-15T17:52:03.488Z,98453.92
2023-02-15T17:54:57.885Z,98453.77
2023-02-15T17:57:27.080Z,98453.88
2023-02-15T18:00:14.297Z,98454.14
2023-02-15T18:03:02.629Z,98458.52
2023-02-15T18:05:50.348Z,98457.98
2023-02-15T18:08:42.363Z,98461.94
2023-02-15T18:11:32.455Z,98460.84
2023-02-15T18:14:03.699Z,98459.92
2023-02-15T18:16:35.368Z,98463.77
2023-02-15T18:19:05.478Z,98463.31
2023-02-15T18:21:34.474Z,98466.28
2023-02-15T18:24:06.949Z,98463.23
2023-02-15T18:26:36.676Z,98469.97
2023-02-15T18:29:05.358Z,98470.85
2023-02-15T18:31:36.957Z,98468.48
2023-02-15T18:34:09.154Z,98468.08
2023-02-15T18:36:44.208Z,98466.67
2023-02-15T18:39:41.457Z,98468.15
2023-02-15T18:42:25.087Z,98466.55
2023-02-15T18:44:59.714Z,98463.70
2023-02-15T18:47:27.897Z,98466.86
2023-02-15T18:49:57.705Z,98466.59
2023-02-15T18:52:33.048Z,98469.40
2023-02-15T18:55:04.524Z,98469.17
2023-02-15T18:57:33.290Z,98472.48
2023-02-15T19:00:01.367Z,98473.61
2023-02-15T19:02:29.576Z,98471.13
2023-02-15T19:04:57.833Z,98473.30
2023-02-15T19:07:28.058Z,98474.92
2023-02-15T19:09:59.298Z,98476.86
2023-02-15T19:12:30.972Z,98474.70
2023-02-15T19:14:58.981Z,98476.67
2023-02-15T19:17:26.946Z,98479.66
2023-02-15T19:19:55.422Z,98481.24
2023-02-15T19:22:30.436Z,98480.11
2023-02-15T19:25:00.767Z,98482.39
2023-02-15T19:27:31.508Z,98482.30
2023-02-15T19:30:03.123Z,98480.63
2023-02-15T19:32:31.336Z,98482.91
2023-02-15T19:34:59.573Z,98483.49
2023-02-15T19:37:43.916Z,98487.83
2023-02-15T19:40:28.947Z,98486.02
2023-02-15T19:42:57.724Z,98484.39
2023-02-15T19:45:29.475Z,98487.34
2023-02-15T19:47:57.777Z,98485.70
2023-02-15T19:50:33.303Z,98484.05
2023-02-15T19:53:02.641Z,98484.80
2023-02-15T19:55:35.384Z,98483.54
2023-02-15T19:58:04.399Z,98480.31
2023-02-15T20:00:34.314Z,98480.52
2023-02-15T20:03:02.597Z,98479.72
2023-02-15T20:05:34.170Z,98478.23
2023-02-15T20:08:04.477Z,98477.96
2023-02-15T20:10:32.754Z,98474.45
2023-02-15T20:13:01.561Z,98472.77
2023-02-15T20:15:35.128Z,98473.55
2023-02-15T20:18:04.353Z,98476.72
2023-02-15T20:21:14.297Z,98474.89
2023-02-15T20:23:42.669Z,98479.92
2023-02-15T20:26:18.332Z,98481.69
2023-02-15T20:28:46.912Z,98478.52
2023-02-15T20:31:17.328Z,98480.62
2023-02-15T20:33:46.039Z,98478.48
2023-02-15T20:36:16.848Z,98476.81
2023-02-15T20:38:45.827Z,98476.04
2023-02-15T20:41:35.449Z,98476.47
2023-02-15T20:44:23.757Z,98473.14
2023-02-15T20:46:54.973Z,98470.80
2023-02-15T20:49:24.596Z,98472.73
2023-02-15T20:51:57.103Z,98470.86
2023-02-15T20:54:30.911Z,98471.07
2023-02-15T20:56:59.477Z,98470.23
2023-02-15T20:59:27.673Z,98472.14
2023-02-15T21:02:00.007Z,98474.72
2023-02-15T21:04:33.547Z,98475.46
2023-02-15T21:07:01.842Z,98475.16
2023-02-15T21:09:31.748Z,98474.52
2023-02-15T21:12:02.762Z,98474.56
2023-02-15T21:14:31.284Z,98473.22
2023-02-15T21:16:59.642Z,98475.80
2023-02-15T21:19:27.941Z,98468.52
2023-02-15T21:21:56.741Z,98468.72
2023-02-15T21:24:28.049Z,98466.71
2023-02-15T21:27:00.584Z,98463.35
2023-02-15T21:29:30.485Z,98465.05
2023-02-15T21:31:58.777Z,98462.98
2023-02-15T21:34:27.042Z,98465.90
2023-02-15T21:36:55.497Z,98464.90
2023-02-15T21:39:26.470Z,98467.35
2023-02-15T21:42:14.520Z,98466.88
2023-02-15T21:45:01.496Z,98466.24
2023-02-15T21:47:50.483Z,98462.55
2023-02-15T21:50:39.837Z,98459.66
2023-02-15T21:53:12.270Z,98458.38
2023-02-15T21:55:40.512Z,98460.35
2023-02-15T21:58:19.100Z,98453.61
2023-02-15T22:00:47.670Z,98455.77
2023-02-15T22:03:16.176Z,98451.39
2023-02-15T22:05:44.141Z,98448.39
2023-02-15T22:08:14.173Z,98452.17
2023-02-15T22:10:43.278Z,98451.40
2023-02-15T22:13:17.882Z,98451.27
2023-02-15T22:15:47.376Z,98453.38
2023-02-15T22:18:27.808Z,98453.42
2023-02-15T22:20:57.011Z,98449.71
2023-02-15T22:23:25.650Z,98446.66
2023-02-15T22:25:57.112Z,98445.83
2023-02-15T22:28:31.438Z,98444.82
2023-02-15T22:31:00.598Z,98448.64
2023-02-15T22:40:18.075Z,98449.79
2023-02-15T22:42:49.009Z,98448.55
2023-02-15T22:45:22.639Z,98449.21
2023-02-15T22:47:53.504Z,98451.08
2023-02-15T22:50:24.862Z,98446.61
2023-02-15T22:52:53.381Z,98444.37
2023-02-15T22:55:24.816Z,98443.67
2023-02-15T22:57:55.832Z,98446.59
2023-02-15T23:00:30.730Z,98449.52
2023-02-15T23:02:58.770Z,98447.02
2023-02-15T23:05:30.246Z,98448.36
2023-02-15T23:07:58.314Z,98445.63
2023-02-15T23:10:29.040Z,98444.23
2023-02-15T23:13:18.438Z,98447.31
2023-02-15T23:15:51.579Z,98446.66
2023-02-15T23:18:24.698Z,98448.09
2023-02-15T23:20:57.757Z,98448.49
2023-02-15T23:23:32.861Z,98446.00
2023-02-15T23:26:04.127Z,98451.30
2023-02-15T23:28:38.303Z,98451.30
2023-02-15T23:31:23.801Z,98454.38
2023-02-15T23:33:53.596Z,98453.35
2023-02-15T23:36:39.257Z,98448.58
2023-02-15T23:39:36.756Z,98447.55
2023-02-15T23:42:26.118Z,98446.71
2023-02-15T23:44:54.513Z,98442.78
2023-02-15T23:47:44.324Z,98443.83
2023-02-15T23:50:19.144Z,98440.80
2023-02-15T23:52:47.515Z,98441.72
2023-02-15T23:55:16.468Z,98439.60
2023-02-15T23:57:45.487Z,98436.40
